Time;durP1;ratioP1;P1;durP2;ratioP2;P2;SDS_P1;SDS_P2;PMS_P1;PMS_P2;Temp;Humidity;BMP_temperature;BMP_pressure;BME280_temperature;BME280_humidity;BME280_pressure;Samples;Min_cycle;Max_cycle;Signal;HPM_P1;HPM_P2
2023/12/09 00:00:44;;;;;;;28.08;18.08;;;;;;;;;;5073332;28;20252;-60
2023/12/09 00:03:10;;;;;;;28.40;18.98;;;;;;;;;;5073172;28;20621;-60
2023/12/09 00:05:37;;;;;;;30.13;19.60;;;;;;;;;;5073239;28;20613;-60
2023/12/09 00:08:05;;;;;;;29.42;18.58;;;;;;;;;;5073428;28;20274;-60
2023/12/09 00:10:33;;;;;;;30.08;19.83;;;;;;;;;;5073399;28;20233;-60
2023/12/09 00:13:01;;;;;;;25.05;18.60;;;;;;;;;;5073298;28;20196;-60
2023/12/09 00:15:27;;;;;;;25.70;18.20;;;;;;;;;;5073185;28;20195;-60
2023/12/09 00:17:54;;;;;;;28.90;18.70;;;;;;;;;;5073090;28;20193;-60
2023/12/09 00:20:21;;;;;;;26.15;17.73;;;;;;;;;;5073464;28;20213;-60
2023/12/09 00:22:48;;;;;;;23.58;18.00;;;;;;;;;;5073281;28;20189;-60
2023/12/09 00:25:15;;;;;;;29.70;19.98;;;;;;;;;;5073102;28;20195;-60
2023/12/09 00:27:43;;;;;;;28.90;19.88;;;;;;;;;;5073118;28;20189;-60
2023/12/09 00:30:11;;;;;;;27.80;20.30;;;;;;;;;;5073028;28;20280;-60
2023/12/09 00:32:38;;;;;;;25.13;17.42;;;;;;;;;;5072941;28;20196;-60
2023/12/09 00:35:05;;;;;;;31.48;19.00;;;;;;;;;;5073170;28;20619;-60
2023/12/09 00:37:32;;;;;;;30.65;18.90;;;;;;;;;;5073270;28;20280;-60
2023/12/09 00:39:59;;;;;;;28.50;19.95;;;;;;;;;;5072930;28;20229;-60
2023/12/09 00:42:26;;;;;;;27.08;19.40;;;;;;;;;;5072804;28;20648;-60
2023/12/09 00:44:54;;;;;;;28.27;19.17;;;;;;;;;;5072894;28;20538;-60
2023/12/09 00:47:21;;;;;;;25.30;17.45;;;;;;;;;;5072772;28;20246;-60
2023/12/09 00:49:48;;;;;;;31.40;19.85;;;;;;;;;;5073002;28;20190;-60
2023/12/09 00:52:15;;;;;;;29.70;20.50;;;;;;;;;;5072955;28;20192;-60
2023/12/09 00:54:42;;;;;;;29.25;19.45;;;;;;;;;;5072740;28;20763;-60
2023/12/09 00:57:09;;;;;;;28.20;19.38;;;;;;;;;;5072801;28;20196;-60
2023/12/09 00:59:36;;;;;;;31.08;19.02;;;;;;;;;;5072573;28;20216;-60
2023/12/09 01:02:04;;;;;;;27.30;19.30;;;;;;;;;;5072895;28;20280;-60
2023/12/09 01:04:31;;;;;;;29.65;20.20;;;;;;;;;;5072901;28;20251;-60
2023/12/09 01:06:58;;;;;;;29.00;20.05;;;;;;;;;;5072783;28;20219;-60
2023/12/09 01:09:25;;;;;;;32.63;19.00;;;;;;;;;;5072810;28;20545;-60
2023/12/09 01:11:52;;;;;;;28.70;19.15;;;;;;;;;;5072582;28;20723;-60
2023/12/09 01:14:19;;;;;;;33.90;21.42;;;;;;;;;;5072416;28;20185;-60
2023/12/09 01:16:46;;;;;;;26.70;18.40;;;;;;;;;;5076234;28;20280;-60
2023/12/09 01:19:14;;;;;;;28.10;19.90;;;;;;;;;;5076556;28;20485;-60
2023/12/09 01:21:42;;;;;;;30.80;19.83;;;;;;;;;;5076477;28;20193;-60
2023/12/09 01:24:09;;;;;;;32.35;20.83;;;;;;;;;;5076421;28;20189;-60
2023/12/09 01:26:36;;;;;;;31.63;20.25;;;;;;;;;;5076328;28;20189;-60
2023/12/09 01:29:03;;;;;;;29.35;18.92;;;;;;;;;;5076701;28;20196;-60
2023/12/09 01:31:30;;;;;;;28.55;20.55;;;;;;;;;;5076405;28;20201;-60
2023/12/09 01:33:57;;;;;;;28.13;20.52;;;;;;;;;;5076282;28;20194;-60
2023/12/09 01:36:25;;;;;;;24.48;17.17;;;;;;;;;;5076157;28;20276;-60
2023/12/09 01:38:52;;;;;;;28.43;19.60;;;;;;;;;;5076182;28;20713;-60
2023/12/09 01:41:19;;;;;;;29.75;20.75;;;;;;;;;;5075771;28;20483;-60
2023/12/09 01:43:48;;;;;;;31.10;19.67;;;;;;;;;;5076150;28;20185;-60
2023/12/09 01:46:15;;;;;;;26.02;17.00;;;;;;;;;;5076244;28;20199;-60
2023/12/09 01:48:42;;;;;;;29.07;18.83;;;;;;;;;;5075963;28;20189;-60
2023/12/09 01:51:09;;;;;;;26.92;18.23;;;;;;;;;;5075910;28;20454;-60
2023/12/09 01:53:37;;;;;;;28.90;19.13;;;;;;;;;;5075729;28;20296;-60
2023/12/09 01:56:06;;;;;;;33.03;20.63;;;;;;;;;;5075803;28;20337;-60
2023/12/09 01:58:35;;;;;;;29.17;20.33;;;;;;;;;;5075849;28;20277;-60
2023/12/09 02:01:02;;;;;;;25.55;18.27;;;;;;;;;;5075843;28;20316;-60
2023/12/09 02:03:31;;;;;;;30.00;19.52;;;;;;;;;;5075731;28;20193;-61
2023/12/09 02:05:58;;;;;;;29.13;18.48;;;;;;;;;;5075687;28;20229;-60
2023/12/09 02:08:25;;;;;;;29.13;18.95;;;;;;;;;;5075434;28;20208;-60
2023/12/09 02:11:00;;;;;;;24.63;17.88;;;;;;;;;;5075710;28;20286;-60
2023/12/09 02:13:31;;;;;;;30.40;19.58;;;;;;;;;;5075646;28;20578;-60
2023/12/09 02:16:01;;;;;;;31.58;20.17;;;;;;;;;;5075393;28;20261;-60
2023/12/09 02:18:29;;;;;;;31.92;20.98;;;;;;;;;;5075429;28;20232;-60
2023/12/09 02:20:56;;;;;;;27.27;18.67;;;;;;;;;;5075133;28;20219;-60
2023/12/09 02:23:24;;;;;;;29.10;19.40;;;;;;;;;;5075405;28;20189;-60
2023/12/09 02:25:54;;;;;;;27.65;18.92;;;;;;;;;;5075354;28;21010;-60
2023/12/09 02:28:24;;;;;;;28.60;18.20;;;;;;;;;;5075301;28;20640;-60
2023/12/09 02:30:55;;;;;;;31.13;21.08;;;;;;;;;;5075269;28;20527;-60
2023/12/09 02:33:23;;;;;;;31.55;19.58;;;;;;;;;;5075144;28;20197;-60
2023/12/09 02:35:51;;;;;;;27.25;19.05;;;;;;;;;;5075289;28;20185;-60
2023/12/09 02:38:19;;;;;;;31.10;18.67;;;;;;;;;;5075167;28;20556;-60
2023/12/09 02:40:48;;;;;;;32.78;20.88;;;;;;;;;;5074974;28;20224;-60
2023/12/09 02:43:15;;;;;;;30.02;19.25;;;;;;;;;;5074786;28;20648;-60
2023/12/09 02:45:42;;;;;;;31.88;19.95;;;;;;;;;;5075083;28;20288;-60
2023/12/09 02:48:09;;;;;;;28.65;19.95;;;;;;;;;;5075040;28;20236;-60
2023/12/09 02:50:36;;;;;;;30.88;18.17;;;;;;;;;;5074909;28;20196;-59
2023/12/09 02:53:03;;;;;;;30.45;20.58;;;;;;;;;;5074835;28;20201;-60
2023/12/09 02:55:30;;;;;;;28.55;19.05;;;;;;;;;;5074707;28;20312;-60
2023/12/09 02:57:58;;;;;;;31.27;20.17;;;;;;;;;;5074763;28;20597;-60
2023/12/09 03:00:25;;;;;;;26.75;18.90;;;;;;;;;;5074454;28;20225;-60
2023/12/09 03:02:52;;;;;;;27.85;19.80;;;;;;;;;;5074681;28;20195;-60
2023/12/09 03:05:19;;;;;;;30.63;19.58;;;;;;;;;;5074639;28;20552;-60
2023/12/09 03:07:46;;;;;;;32.35;20.58;;;;;;;;;;5074698;28;20189;-60
2023/12/09 03:10:13;;;;;;;29.55;19.35;;;;;;;;;;5074429;28;20283;-60
2023/12/09 03:12:40;;;;;;;38.65;20.63;;;;;;;;;;5074389;28;20275;-60
2023/12/09 03:15:09;;;;;;;30.42;19.63;;;;;;;;;;5074141;28;20678;-60
2023/12/09 03:17:36;;;;;;;31.02;20.10;;;;;;;;;;5074399;28;20243;-60
2023/12/09 03:20:03;;;;;;;25.77;18.27;;;;;;;;;;5074194;28;20244;-60
2023/12/09 03:22:30;;;;;;;29.07;19.93;;;;;;;;;;5074229;28;20185;-60
2023/12/09 03:24:57;;;;;;;27.52;18.70;;;;;;;;;;5074050;28;20443;-60
2023/12/09 03:27:24;;;;;;;30.40;19.83;;;;;;;;;;5073986;28;20193;-60
2023/12/09 03:29:51;;;;;;;29.13;19.30;;;;;;;;;;5073685;28;20197;-60
2023/12/09 03:32:19;;;;;;;31.13;20.13;;;;;;;;;;5074114;28;20283;-60
2023/12/09 03:34:46;;;;;;;27.77;18.05;;;;;;;;;;5073972;28;20189;-60
2023/12/09 03:37:13;;;;;;;27.33;18.77;;;;;;;;;;5073681;28;20200;-60
2023/12/09 03:39:40;;;;;;;25.08;16.63;;;;;;;;;;5073891;28;20275;-60
2023/12/09 03:42:07;;;;;;;28.40;17.85;;;;;;;;;;5073597;28;20276;-60
2023/12/09 03:44:34;;;;;;;28.30;18.85;;;;;;;;;;5073880;28;20671;-60
2023/12/09 03:47:01;;;;;;;29.27;17.85;;;;;;;;;;5074044;28;20276;-60
2023/12/09 03:49:29;;;;;;;30.23;19.17;;;;;;;;;;5073662;28;20189;-60
2023/12/09 03:51:56;;;;;;;26.37;18.10;;;;;;;;;;5073464;28;21022;-60
2023/12/09 03:54:23;;;;;;;29.63;19.90;;;;;;;;;;5073288;28;20554;-60
2023/12/09 03:56:50;;;;;;;27.75;19.00;;;;;;;;;;5073752;28;20221;-60
2023/12/09 03:59:17;;;;;;;26.77;18.45;;;;;;;;;;5073562;28;20228;-60
2023/12/09 04:01:48;;;;;;;28.15;18.52;;;;;;;;;;5073402;28;20572;-60
2023/12/09 04:04:15;;;;;;;30.27;18.83;;;;;;;;;;5073416;28;20185;-60
2023/12/09 04:06:43;;;;;;;26.00;18.85;;;;;;;;;;5073344;28;20447;-60
2023/12/09 04:09:10;;;;;;;29.42;20.05;;;;;;;;;;5073193;28;20716;-60
2023/12/09 04:11:37;;;;;;;31.17;20.25;;;;;;;;;;5073449;28;20185;-60
2023/12/09 04:14:05;;;;;;;27.30;18.17;;;;;;;;;;5073366;28;20189;-60
2023/12/09 04:16:32;;;;;;;26.75;19.25;;;;;;;;;;5073162;28;20193;-60
2023/12/09 04:18:59;;;;;;;30.73;21.27;;;;;;;;;;5073217;28;20588;-60
2023/12/09 04:21:26;;;;;;;24.63;17.75;;;;;;;;;;5073075;28;20479;-60
2023/12/09 04:23:54;;;;;;;27.60;17.60;;;;;;;;;;5072992;28;20224;-60
2023/12/09 04:26:21;;;;;;;25.48;16.85;;;;;;;;;;5073295;28;20823;-60
2023/12/09 04:28:48;;;;;;;28.75;17.35;;;;;;;;;;5073175;28;20189;-60
2023/12/09 04:31:15;;;;;;;29.10;18.20;;;;;;;;;;5073095;28;20194;-60
2023/12/09 04:33:44;;;;;;;23.73;17.17;;;;;;;;;;5073118;28;20859;-60
2023/12/09 04:36:11;;;;;;;29.90;20.10;;;;;;;;;;5072876;28;20189;-60
2023/12/09 04:38:38;;;;;;;28.67;18.80;;;;;;;;;;5073134;28;20280;-60
2023/12/09 04:41:06;;;;;;;27.15;18.85;;;;;;;;;;5073012;28;20217;-60
2023/12/09 04:43:33;;;;;;;32.27;19.93;;;;;;;;;;5073250;28;20193;-60
2023/12/09 04:46:00;;;;;;;30.23;19.33;;;;;;;;;;5072950;28;20539;-60
2023/12/09 04:48:28;;;;;;;33.83;18.40;;;;;;;;;;5072877;28;20450;-60
2023/12/09 04:50:55;;;;;;;32.50;20.13;;;;;;;;;;5075300;28;20246;-59
2023/12/09 04:53:22;;;;;;;31.30;19.50;;;;;;;;;;5077160;28;20280;-60
2023/12/09 04:55:49;;;;;;;30.42;20.63;;;;;;;;;;5076960;28;20477;-61
2023/12/09 04:58:17;;;;;;;29.02;19.08;;;;;;;;;;5077000;28;20220;-60
2023/12/09 05:00:44;;;;;;;29.95;19.30;;;;;;;;;;5076794;28;20733;-60
2023/12/09 05:03:11;;;;;;;30.27;18.63;;;;;;;;;;5077076;28;20189;-60
2023/12/09 05:05:38;;;;;;;32.47;19.98;;;;;;;;;;5076712;28;20189;-60
2023/12/09 05:08:05;;;;;;;34.28;20.42;;;;;;;;;;5076885;28;20621;-60
2023/12/09 05:10:32;;;;;;;34.45;19.45;;;;;;;;;;5076757;28;20200;-60
2023/12/09 05:12:59;;;;;;;33.20;20.73;;;;;;;;;;5076806;28;20281;-60
2023/12/09 05:15:27;;;;;;;34.40;21.08;;;;;;;;;;5076576;28;20457;-61
2023/12/09 05:17:55;;;;;;;29.92;18.35;;;;;;;;;;5076408;28;20191;-60
2023/12/09 05:20:22;;;;;;;32.05;20.75;;;;;;;;;;5076623;28;20195;-60
2023/12/09 05:22:49;;;;;;;33.47;18.67;;;;;;;;;;5076541;28;20185;-60
2023/12/09 05:25:16;;;;;;;33.25;19.30;;;;;;;;;;5076462;28;20443;-60
2023/12/09 05:27:43;;;;;;;36.38;19.85;;;;;;;;;;5076369;28;20193;-60
2023/12/09 05:30:11;;;;;;;32.72;19.23;;;;;;;;;;5076753;28;20191;-60
2023/12/09 05:32:39;;;;;;;32.07;19.70;;;;;;;;;;5076158;28;20200;-60
2023/12/09 05:35:07;;;;;;;35.45;19.88;;;;;;;;;;5076357;28;20796;-60
2023/12/09 05:37:33;;;;;;;32.67;20.00;;;;;;;;;;5076426;28;20251;-61
2023/12/09 05:40:00;;;;;;;29.40;18.88;;;;;;;;;;5076154;28;20272;-60
2023/12/09 05:42:27;;;;;;;33.45;19.58;;;;;;;;;;5075957;28;20348;-60
2023/12/09 05:44:54;;;;;;;31.17;20.23;;;;;;;;;;5075955;28;20220;-61
2023/12/09 05:47:22;;;;;;;33.00;18.30;;;;;;;;;;5076196;28;20189;-61
2023/12/09 05:49:51;;;;;;;45.33;23.67;;;;;;;;;;5076081;28;20483;-60
2023/12/09 05:52:18;;;;;;;38.33;22.50;;;;;;;;;;5075963;28;20806;-60
2023/12/09 05:54:44;;;;;;;34.60;22.23;;;;;;;;;;5075700;28;20225;-60
2023/12/09 05:57:11;;;;;;;36.20;23.15;;;;;;;;;;5075915;28;20938;-60
2023/12/09 05:59:38;;;;;;;37.50;23.95;;;;;;;;;;5075604;28;20276;-60
2023/12/09 06:02:06;;;;;;;42.27;23.20;;;;;;;;;;5075318;28;20229;-61
2023/12/09 06:04:33;;;;;;;38.15;23.40;;;;;;;;;;5075727;28;20946;-60
2023/12/09 06:07:01;;;;;;;37.45;22.10;;;;;;;;;;5075679;28;20215;-61
2023/12/09 06:09:28;;;;;;;40.42;22.88;;;;;;;;;;5075572;28;20619;-60
2023/12/09 06:11:55;;;;;;;42.00;23.20;;;;;;;;;;5075505;28;20281;-60
2023/12/09 06:14:22;;;;;;;39.43;22.33;;;;;;;;;;5075357;28;20450;-60
2023/12/09 06:16:49;;;;;;;43.60;22.65;;;;;;;;;;5075683;28;20486;-60
2023/12/09 06:19:16;;;;;;;45.75;24.98;;;;;;;;;;5075495;28;20192;-60
2023/12/09 06:21:43;;;;;;;36.08;22.55;;;;;;;;;;5075342;28;20619;-60
2023/12/09 06:24:11;;;;;;;41.65;22.05;;;;;;;;;;5075626;28;20189;-60
2023/12/09 06:26:44;;;;;;;34.47;20.88;;;;;;;;;;5075186;28;20196;-60
2023/12/09 06:29:13;;;;;;;33.90;20.40;;;;;;;;;;5075195;28;20185;-60
2023/12/09 06:31:40;;;;;;;36.50;22.07;;;;;;;;;;5075256;28;20454;-60
2023/12/09 06:34:07;;;;;;;33.90;21.40;;;;;;;;;;5075308;28;21010;-60
2023/12/09 06:36:34;;;;;;;33.30;21.43;;;;;;;;;;5075067;28;20545;-60
2023/12/09 06:39:01;;;;;;;32.40;21.00;;;;;;;;;;5075228;28;20443;-60
2023/12/09 06:41:29;;;;;;;28.93;19.90;;;;;;;;;;5074778;28;20481;-60
2023/12/09 06:43:56;;;;;;;34.60;22.17;;;;;;;;;;5075035;28;20855;-60
2023/12/09 06:46:23;;;;;;;38.50;23.13;;;;;;;;;;5075338;28;20450;-60
2023/12/09 06:48:50;;;;;;;36.75;22.08;;;;;;;;;;5074884;28;20446;-60
2023/12/09 06:51:17;;;;;;;35.20;21.25;;;;;;;;;;5074850;28;20631;-60
2023/12/09 06:53:44;;;;;;;35.88;22.30;;;;;;;;;;5074745;28;20592;-60
2023/12/09 06:56:19;;;;;;;36.40;20.08;;;;;;;;;;5074662;28;20754;-58
2023/12/09 06:58:48;;;;;;;30.45;20.60;;;;;;;;;;5074812;28;20189;-58
2023/12/09 07:01:19;;;;;;;36.63;21.03;;;;;;;;;;5074806;28;20209;-58
2023/12/09 07:03:47;;;;;;;35.88;21.40;;;;;;;;;;5074617;28;20538;-58
2023/12/09 07:06:14;;;;;;;34.43;19.40;;;;;;;;;;5074357;28;20189;-58
2023/12/09 07:08:41;;;;;;;34.13;20.53;;;;;;;;;;5074633;28;20961;-58
2023/12/09 07:11:09;;;;;;;33.30;21.10;;;;;;;;;;5074464;28;20542;-58
2023/12/09 07:13:36;;;;;;;38.57;21.67;;;;;;;;;;5073637;28;20501;-59
2023/12/09 07:16:04;;;;;;;33.30;20.33;;;;;;;;;;5074316;28;20530;-60
2023/12/09 07:18:31;;;;;;;33.10;20.10;;;;;;;;;;5074204;28;20446;-60
2023/12/09 07:20:58;;;;;;;38.23;22.33;;;;;;;;;;5074041;28;20536;-60
2023/12/09 07:23:25;;;;;;;35.50;20.80;;;;;;;;;;5074207;28;20443;-60
2023/12/09 07:25:52;;;;;;;33.83;20.47;;;;;;;;;;5074179;28;20531;-60
2023/12/09 07:28:19;;;;;;;32.83;21.47;;;;;;;;;;5074357;28;20456;-60
2023/12/09 07:30:46;;;;;;;45.55;22.67;;;;;;;;;;5073962;28;20450;-60
2023/12/09 07:33:14;;;;;;;31.70;19.40;;;;;;;;;;5073953;28;20591;-60
2023/12/09 07:35:42;;;;;;;31.50;20.27;;;;;;;;;;5073756;28;20447;-60
2023/12/09 07:38:09;;;;;;;25.20;18.07;;;;;;;;;;5073953;28;20526;-60
2023/12/09 07:40:36;;;;;;;39.57;22.00;;;;;;;;;;5073920;28;20447;-60
2023/12/09 07:43:04;;;;;;;29.45;20.80;;;;;;;;;;5073744;28;20842;-60
2023/12/09 07:45:31;;;;;;;28.53;18.90;;;;;;;;;;5073727;28;20215;-60
2023/12/09 07:47:57;;;;;;;34.10;20.13;;;;;;;;;;5073524;28;20574;-60
2023/12/09 07:50:26;;;;;;;32.97;20.13;;;;;;;;;;5073761;28;20855;-60
2023/12/09 07:52:53;;;;;;;25.27;18.20;;;;;;;;;;5073651;28;20440;-60
2023/12/09 07:55:20;;;;;;;31.20;20.02;;;;;;;;;;5073414;28;20562;-60
2023/12/09 07:57:46;;;;;;;30.63;19.60;;;;;;;;;;5073503;28;20544;-60
2023/12/09 08:00:14;;;;;;;29.83;18.30;;;;;;;;;;5073402;28;20287;-60
2023/12/09 08:02:42;;;;;;;29.27;19.13;;;;;;;;;;5073205;28;20471;-60
2023/12/09 08:05:09;;;;;;;28.70;19.13;;;;;;;;;;5073522;28;20535;-60
2023/12/09 08:07:37;;;;;;;31.27;19.07;;;;;;;;;;5073267;28;20364;-60
2023/12/09 08:10:04;;;;;;;27.98;19.25;;;;;;;;;;5073225;28;21025;-60
2023/12/09 08:12:31;;;;;;;28.97;17.80;;;;;;;;;;5073282;28;20196;-60
2023/12/09 08:14:58;;;;;;;26.67;17.10;;;;;;;;;;5073110;28;20930;-60
2023/12/09 08:17:25;;;;;;;23.93;16.97;;;;;;;;;;5073406;28;20509;-60
2023/12/09 08:19:52;;;;;;;34.67;19.80;;;;;;;;;;5073210;28;20449;-60
2023/12/09 08:22:19;;;;;;;26.53;17.57;;;;;;;;;;5072997;28;20494;-60
2023/12/09 08:24:47;;;;;;;28.48;16.90;;;;;;;;;;5072947;28;20450;-60
2023/12/09 08:27:14;;;;;;;27.80;20.20;;;;;;;;;;5073022;28;20189;-60
2023/12/09 08:29:41;;;;;;;24.97;17.40;;;;;;;;;;5072865;28;20279;-60
2023/12/09 08:32:09;;;;;;;23.27;15.60;;;;;;;;;;5073188;28;20443;-60
2023/12/09 08:34:36;;;;;;;25.40;16.87;;;;;;;;;;5073235;28;20447;-61
2023/12/09 08:37:03;;;;;;;25.67;16.17;;;;;;;;;;5073072;28;20450;-60
2023/12/09 08:39:30;;;;;;;26.60;15.60;;;;;;;;;;5072970;28;20470;-60
2023/12/09 08:41:58;;;;;;;20.80;15.53;;;;;;;;;;5072887;28;21077;-60
2023/12/09 08:44:25;;;;;;;24.43;17.23;;;;;;;;;;5072806;28;20450;-60
2023/12/09 08:46:52;;;;;;;25.37;16.17;;;;;;;;;;5072670;28;20546;-61
2023/12/09 08:49:19;;;;;;;22.97;16.60;;;;;;;;;;5072977;28;20447;-60
2023/12/09 08:51:46;;;;;;;23.73;16.70;;;;;;;;;;5072663;28;20527;-60
2023/12/09 08:54:13;;;;;;;20.80;15.50;;;;;;;;;;5072609;28;20450;-60
2023/12/09 08:56:40;;;;;;;22.00;16.03;;;;;;;;;;5072676;28;20593;-60
2023/12/09 08:59:10;;;;;;;22.67;16.10;;;;;;;;;;5072652;28;20538;-61
2023/12/09 09:01:37;;;;;;;22.17;16.42;;;;;;;;;;5072737;28;20482;-60
2023/12/09 09:04:03;;;;;;;23.07;16.57;;;;;;;;;;5072732;28;20283;-60
2023/12/09 09:06:31;;;;;;;22.63;16.50;;;;;;;;;;5072700;28;20445;-60
2023/12/09 09:08:58;;;;;;;24.20;17.03;;;;;;;;;;5072646;28;20193;-61
2023/12/09 09:11:25;;;;;;;21.40;15.83;;;;;;;;;;5072446;28;20500;-60
2023/12/09 09:13:52;;;;;;;22.63;15.57;;;;;;;;;;5072722;28;20523;-59
2023/12/09 09:16:20;;;;;;;22.67;15.67;;;;;;;;;;5072915;28;20535;-59
2023/12/09 09:18:47;;;;;;;26.70;16.77;;;;;;;;;;5072582;28;20444;-59
2023/12/09 09:21:15;;;;;;;25.63;17.33;;;;;;;;;;5072542;28;20532;-59
2023/12/09 09:23:42;;;;;;;24.03;18.90;;;;;;;;;;5072320;28;20917;-59
2023/12/09 09:26:09;;;;;;;26.20;18.00;;;;;;;;;;5072584;28;20554;-59
2023/12/09 09:28:35;;;;;;;22.40;15.57;;;;;;;;;;5072496;28;20527;-59
2023/12/09 09:31:02;;;;;;;21.97;15.97;;;;;;;;;;5072494;28;20444;-59
2023/12/09 09:33:31;;;;;;;23.47;15.67;;;;;;;;;;5072272;28;20798;-60
2023/12/09 09:35:58;;;;;;;20.27;16.27;;;;;;;;;;5072858;28;20457;-60
2023/12/09 09:38:25;;;;;;;21.70;16.07;;;;;;;;;;5074214;28;20479;-60
2023/12/09 09:40:51;;;;;;;20.67;15.47;;;;;;;;;;5073916;28;20530;-59
2023/12/09 09:43:21;;;;;;;24.67;16.87;;;;;;;;;;5074517;28;20557;-60
2023/12/09 09:45:49;;;;;;;20.67;15.13;;;;;;;;;;5075893;28;20451;-60
2023/12/09 09:48:17;;;;;;;19.80;13.83;;;;;;;;;;5075904;28;20443;-59
2023/12/09 09:50:47;;;;;;;17.30;13.67;;;;;;;;;;5075741;28;20443;-60
2023/12/09 09:53:14;;;;;;;17.47;13.83;;;;;;;;;;5075776;28;20535;-60
2023/12/09 09:55:42;;;;;;;20.87;14.70;;;;;;;;;;5075335;28;20467;-60
2023/12/09 09:58:09;;;;;;;19.45;14.60;;;;;;;;;;5075456;28;20440;-59
2023/12/09 10:00:36;;;;;;;18.55;13.30;;;;;;;;;;5075690;28;20193;-59
2023/12/09 10:03:03;;;;;;;19.27;13.70;;;;;;;;;;5075563;28;20275;-59
2023/12/09 10:05:30;;;;;;;20.43;14.20;;;;;;;;;;5075548;28;20854;-59
2023/12/09 10:07:59;;;;;;;19.17;13.43;;;;;;;;;;5075331;28;20453;-59
2023/12/09 10:10:26;;;;;;;19.43;14.90;;;;;;;;;;5075628;28;20881;-59
2023/12/09 10:12:53;;;;;;;20.30;13.50;;;;;;;;;;5075544;28;20505;-59
2023/12/09 10:15:21;;;;;;;18.73;13.17;;;;;;;;;;5075492;28;20439;-59
2023/12/09 10:17:48;;;;;;;19.77;13.53;;;;;;;;;;5075413;28;20958;-59
2023/12/09 10:20:15;;;;;;;14.60;11.70;;;;;;;;;;5075314;28;20443;-59
2023/12/09 10:22:42;;;;;;;17.77;12.57;;;;;;;;;;5075435;28;20538;-59
2023/12/09 10:25:11;;;;;;;20.90;13.57;;;;;;;;;;5075430;28;20447;-59
2023/12/09 10:27:42;;;;;;;18.60;13.90;;;;;;;;;;5075331;28;20440;-60
2023/12/09 10:30:09;;;;;;;19.73;12.80;;;;;;;;;;5075305;28;20447;-59
2023/12/09 10:32:36;;;;;;;18.10;14.10;;;;;;;;;;5075019;28;20570;-59
2023/12/09 10:35:03;;;;;;;23.00;15.63;;;;;;;;;;5075509;28;20450;-60
2023/12/09 10:37:31;;;;;;;18.10;13.50;;;;;;;;;;5075083;28;20450;-59
2023/12/09 10:39:58;;;;;;;16.40;12.73;;;;;;;;;;5074799;28;21008;-59
2023/12/09 10:42:26;;;;;;;18.57;14.00;;;;;;;;;;5074994;28;20546;-60
2023/12/09 10:44:54;;;;;;;16.13;13.93;;;;;;;;;;5074955;28;20448;-59
2023/12/09 10:47:21;;;;;;;16.37;12.83;;;;;;;;;;5073936;28;20447;-60
2023/12/09 10:49:48;;;;;;;15.83;12.57;;;;;;;;;;5074606;28;20535;-60
2023/12/09 10:52:15;;;;;;;15.87;11.63;;;;;;;;;;5074758;28;20446;-59
2023/12/09 10:54:42;;;;;;;17.00;12.07;;;;;;;;;;5074623;28;20561;-59
2023/12/09 10:57:08;;;;;;;16.63;11.87;;;;;;;;;;5074659;28;20538;-59
2023/12/09 10:59:36;;;;;;;15.93;12.00;;;;;;;;;;5074556;28;20505;-59
2023/12/09 11:02:04;;;;;;;15.77;12.73;;;;;;;;;;5074688;28;20446;-59
2023/12/09 11:04:31;;;;;;;18.10;13.30;;;;;;;;;;5074575;28;20447;-59
2023/12/09 11:07:01;;;;;;;17.13;13.77;;;;;;;;;;5074505;28;20446;-60
2023/12/09 11:09:28;;;;;;;16.97;11.80;;;;;;;;;;5074366;28;20885;-59
2023/12/09 11:11:55;;;;;;;17.10;12.10;;;;;;;;;;5074320;28;20440;-59
2023/12/09 11:14:25;;;;;;;17.97;12.63;;;;;;;;;;5074596;28;20479;-60
2023/12/09 11:16:54;;;;;;;15.73;12.13;;;;;;;;;;5074441;28;20452;-60
2023/12/09 11:19:22;;;;;;;14.77;11.20;;;;;;;;;;5074242;28;20454;-60
2023/12/09 11:21:49;;;;;;;18.67;11.47;;;;;;;;;;5074179;28;20447;-59
2023/12/09 11:24:18;;;;;;;13.90;11.17;;;;;;;;;;5073962;28;20538;-59
2023/12/09 11:26:46;;;;;;;15.90;12.20;;;;;;;;;;5073976;28;20444;-60
2023/12/09 11:29:14;;;;;;;18.40;11.70;;;;;;;;;;5074154;28;20443;-60
2023/12/09 11:31:42;;;;;;;15.97;11.23;;;;;;;;;;5074074;28;20449;-60
2023/12/09 11:34:11;;;;;;;15.90;11.23;;;;;;;;;;5073923;28;20487;-60
2023/12/09 11:36:39;;;;;;;13.70;11.00;;;;;;;;;;5073889;28;20479;-60
2023/12/09 11:39:07;;;;;;;14.60;11.07;;;;;;;;;;5073737;28;20819;-60
2023/12/09 11:41:35;;;;;;;20.20;11.47;;;;;;;;;;5073494;28;20444;-59
2023/12/09 11:44:03;;;;;;;15.50;11.00;;;;;;;;;;5073393;28;20856;-59
2023/12/09 11:46:30;;;;;;;15.43;11.40;;;;;;;;;;5073076;28;20450;-59
2023/12/09 11:48:58;;;;;;;15.23;11.27;;;;;;;;;;5073530;28;20447;-60
2023/12/09 11:51:26;;;;;;;18.23;10.60;;;;;;;;;;5073334;28;20462;-59
2023/12/09 11:53:54;;;;;;;13.77;11.80;;;;;;;;;;5073573;28;20586;-59
2023/12/09 11:56:21;;;;;;;19.67;11.73;;;;;;;;;;5073453;28;20477;-59
2023/12/09 11:58:48;;;;;;;15.50;10.77;;;;;;;;;;5073036;28;20444;-60
2023/12/09 12:01:15;;;;;;;18.20;11.57;;;;;;;;;;5073361;28;20443;-59
2023/12/09 12:03:42;;;;;;;14.33;9.63;;;;;;;;;;5073206;28;20447;-59
2023/12/09 12:06:09;;;;;;;15.67;10.67;;;;;;;;;;5073343;28;20538;-59
2023/12/09 12:08:37;;;;;;;14.80;10.43;;;;;;;;;;5073070;28;20443;-59
2023/12/09 12:11:04;;;;;;;14.43;10.57;;;;;;;;;;5073432;28;20474;-59
2023/12/09 12:13:31;;;;;;;12.60;9.73;;;;;;;;;;5073085;28;20483;-59
2023/12/09 12:15:58;;;;;;;15.13;10.37;;;;;;;;;;5072934;28;20479;-62
2023/12/09 12:18:26;;;;;;;14.03;9.53;;;;;;;;;;5073013;28;20961;-59
2023/12/09 12:20:52;;;;;;;14.07;10.50;;;;;;;;;;5073030;28;20872;-60
2023/12/09 12:23:20;;;;;;;13.07;10.23;;;;;;;;;;5073418;28;20538;-60
2023/12/09 12:25:49;;;;;;;13.67;10.20;;;;;;;;;;5073142;28;20443;-59
2023/12/09 12:28:16;;;;;;;14.63;11.03;;;;;;;;;;5073131;28;20961;-59
2023/12/09 12:30:43;;;;;;;12.93;9.83;;;;;;;;;;5072984;28;20449;-59
2023/12/09 12:33:11;;;;;;;18.67;9.63;;;;;;;;;;5072787;28;20558;-59
2023/12/09 12:35:38;;;;;;;16.10;9.93;;;;;;;;;;5072780;28;20447;-59
2023/12/09 12:38:05;;;;;;;11.90;10.20;;;;;;;;;;5072976;28;20531;-59
2023/12/09 12:40:32;;;;;;;11.30;9.43;;;;;;;;;;5072984;28;20539;-59
2023/12/09 12:43:04;;;;;;;12.10;9.20;;;;;;;;;;5072932;28;20451;-59
2023/12/09 12:45:33;;;;;;;12.60;9.03;;;;;;;;;;5072775;28;20883;-59
2023/12/09 12:48:00;;;;;;;12.57;8.43;;;;;;;;;;5072641;28;20443;-59
2023/12/09 12:50:27;;;;;;;14.50;9.50;;;;;;;;;;5072905;28;20470;-59
2023/12/09 12:52:54;;;;;;;12.73;8.80;;;;;;;;;;5072572;28;20554;-59
2023/12/09 12:55:21;;;;;;;12.07;9.43;;;;;;;;;;5072583;28;20562;-60
2023/12/09 12:57:48;;;;;;;12.63;8.33;;;;;;;;;;5072804;28;20846;-59
2023/12/09 13:00:17;;;;;;;10.53;8.63;;;;;;;;;;5072656;28;20447;-59
2023/12/09 13:02:44;;;;;;;11.13;8.47;;;;;;;;;;5072565;28;20447;-59
2023/12/09 13:05:12;;;;;;;8.93;7.70;;;;;;;;;;5072737;28;20526;-59
2023/12/09 13:07:39;;;;;;;12.33;9.30;;;;;;;;;;5072715;28;20625;-59
2023/12/09 13:10:07;;;;;;;10.17;7.73;;;;;;;;;;5072705;28;20840;-59
2023/12/09 13:12:34;;;;;;;11.57;8.10;;;;;;;;;;5075698;28;20451;-59
2023/12/09 13:15:01;;;;;;;13.03;9.10;;;;;;;;;;5076667;28;20487;-59
2023/12/09 13:17:30;;;;;;;11.90;9.10;;;;;;;;;;5076911;28;20538;-60
2023/12/09 13:19:56;;;;;;;11.47;8.63;;;;;;;;;;5076649;28;20455;-60
2023/12/09 13:22:23;;;;;;;10.33;8.43;;;;;;;;;;5076336;28;21010;-60
2023/12/09 13:24:51;;;;;;;12.03;8.63;;;;;;;;;;5076360;28;20451;-59
2023/12/09 13:27:18;;;;;;;10.50;7.90;;;;;;;;;;5076221;28;20451;-59
2023/12/09 13:29:45;;;;;;;13.70;7.00;;;;;;;;;;5076353;28;20482;-59
2023/12/09 13:32:12;;;;;;;12.17;7.97;;;;;;;;;;5076586;28;20534;-59
2023/12/09 13:34:40;;;;;;;13.70;8.40;;;;;;;;;;5076185;28;20893;-60
2023/12/09 13:37:07;;;;;;;8.83;7.23;;;;;;;;;;5076300;28;20444;-59
2023/12/09 13:39:34;;;;;;;9.87;7.80;;;;;;;;;;5076093;28;20530;-59
2023/12/09 13:42:02;;;;;;;10.17;7.37;;;;;;;;;;5075960;28;20479;-59
2023/12/09 13:44:29;;;;;;;11.33;7.70;;;;;;;;;;5075951;28;20443;-59
2023/12/09 13:46:55;;;;;;;11.50;7.40;;;;;;;;;;5076058;28;20523;-60
2023/12/09 13:49:22;;;;;;;8.83;7.50;;;;;;;;;;5075737;28;21014;-59
2023/12/09 13:51:51;;;;;;;11.20;8.70;;;;;;;;;;5075701;28;20876;-59
2023/12/09 13:54:20;;;;;;;10.53;7.97;;;;;;;;;;5075467;28;20848;-59
2023/12/09 13:56:47;;;;;;;8.87;7.50;;;;;;;;;;5075749;28;20444;-59
2023/12/09 13:59:14;;;;;;;9.13;7.40;;;;;;;;;;5075631;28;20942;-59
2023/12/09 14:01:41;;;;;;;9.90;7.93;;;;;;;;;;5075722;28;20443;-59
2023/12/09 14:04:08;;;;;;;8.30;6.33;;;;;;;;;;5075697;28;20538;-59
2023/12/09 14:06:35;;;;;;;12.73;7.83;;;;;;;;;;5075632;28;20448;-59
2023/12/09 14:09:05;;;;;;;9.20;7.37;;;;;;;;;;5075324;28;20530;-59
2023/12/09 14:11:32;;;;;;;9.37;8.10;;;;;;;;;;5075514;28;20493;-60
2023/12/09 14:13:59;;;;;;;10.47;7.80;;;;;;;;;;5075399;28;20483;-59
2023/12/09 14:16:26;;;;;;;13.83;7.83;;;;;;;;;;5075529;28;20530;-59
2023/12/09 14:18:52;;;;;;;8.37;7.53;;;;;;;;;;5075450;28;20446;-59